createdAt,value
2023-05-08T00:00:00.909Z,101780
2023-05-08T00:05:00.550Z,101800
2023-05-08T00:10:01.701Z,101780
2023-05-08T00:15:01.021Z,101780
2023-05-08T00:20:01.415Z,101780
2023-05-08T00:25:00.752Z,101800
2023-05-08T00:30:00.599Z,101790
2023-05-08T00:35:01.051Z,101770
2023-05-08T00:40:01.957Z,101770
2023-05-08T00:45:00.569Z,101770
2023-05-08T00:50:01.039Z,101780
2023-05-08T00:55:00.877Z,101790
2023-05-08T01:00:00.792Z,101780
2023-05-08T01:05:02.886Z,101770
2023-05-08T01:10:00.744Z,101770
2023-05-08T01:15:02.020Z,101770
2023-05-08T01:20:00.734Z,101770
2023-05-08T01:25:01.085Z,101780
2023-05-08T01:30:01.299Z,101770
2023-05-08T01:35:00.847Z,101770
2023-05-08T01:40:01.426Z,101760
2023-05-08T01:45:00.719Z,101760
2023-05-08T01:50:00.845Z,101770
2023-05-08T01:55:00.822Z,101790
2023-05-08T02:00:00.768Z,101790
2023-05-08T02:05:00.853Z,101790
2023-05-08T02:10:00.817Z,101780
2023-05-08T02:15:00.659Z,101790
2023-05-08T02:20:00.512Z,101780
2023-05-08T02:25:02.005Z,101780
2023-05-08T02:30:00.529Z,101810
2023-05-08T02:35:06.104Z,101770
2023-05-08T02:40:00.552Z,101790
2023-05-08T02:45:00.660Z,101820
2023-05-08T02:50:01.663Z,101810
2023-05-08T02:55:00.918Z,101800
2023-05-08T03:00:00.662Z,101800
2023-05-08T03:05:01.524Z,101790
2023-05-08T03:10:00.518Z,101790
2023-05-08T03:15:00.809Z,101800
2023-05-08T03:20:02.018Z,101790
2023-05-08T03:25:00.691Z,101790
2023-05-08T03:30:00.887Z,101790
2023-05-08T03:35:02.588Z,101800
2023-05-08T03:40:00.516Z,101780
2023-05-08T03:45:02.469Z,101800
2023-05-08T03:50:00.521Z,101780
2023-05-08T03:55:00.598Z,101800
2023-05-08T04:00:01.948Z,101790
2023-05-08T04:05:00.831Z,101780
2023-05-08T04:10:00.750Z,101770
2023-05-08T04:15:01.315Z,101780
2023-05-08T04:20:02.349Z,101770
2023-05-08T04:25:00.549Z,101780
2023-05-08T04:30:01.800Z,101790
2023-05-08T04:35:00.526Z,101770
2023-05-08T04:40:01.174Z,101780
2023-05-08T04:45:00.845Z,101790
2023-05-08T04:50:02.563Z,101810
2023-05-08T04:55:00.842Z,101800
2023-05-08T05:00:01.076Z,101790
2023-05-08T05:05:01.068Z,101790
2023-05-08T05:10:00.722Z,101820
2023-05-08T05:15:00.719Z,101820
2023-05-08T05:20:01.212Z,101820
2023-05-08T05:25:01.509Z,101820
2023-05-08T05:30:02.269Z,101820
2023-05-08T05:35:00.946Z,101820
2023-05-08T05:40:01.190Z,101840
2023-05-08T05:45:01.456Z,101860
2023-05-08T05:50:00.825Z,101820
2023-05-08T05:55:01.039Z,101830
2023-05-08T06:00:00.880Z,101840
2023-05-08T06:05:01.109Z,101840
2023-05-08T06:10:00.964Z,101840
2023-05-08T06:15:00.847Z,101850
2023-05-08T06:20:02.376Z,101840
2023-05-08T06:25:01.174Z,101860
2023-05-08T06:30:00.834Z,101830
2023-05-08T06:35:01.471Z,101860
2023-05-08T06:40:11.470Z,101850
2023-05-08T06:45:01.079Z,101840
2023-05-08T06:50:00.681Z,101830
2023-05-08T06:55:00.742Z,101830
2023-05-08T07:00:00.882Z,101820
2023-05-08T07:05:01.343Z,101820
2023-05-08T07:10:00.840Z,101810
2023-05-08T07:15:13.789Z,101810
2023-05-08T07:20:00.490Z,101820
2023-05-08T07:25:02.095Z,101840
2023-05-08T07:30:00.983Z,101830
2023-05-08T07:35:01.112Z,101850
2023-05-08T07:40:01.553Z,101840
2023-05-08T07:45:01.450Z,101840
2023-05-08T07:50:00.628Z,101840
2023-05-08T07:55:00.557Z,101840
2023-05-08T08:00:00.855Z,101830
2023-05-08T08:05:00.934Z,101840
2023-05-08T08:10:00.940Z,101860
2023-05-08T08:15:01.769Z,101840
2023-05-08T08:20:01.467Z,101850
2023-05-08T08:25:00.581Z,101850
2023-05-08T08:30:16.261Z,101820
2023-05-08T08:35:00.865Z,101850
2023-05-08T08:40:00.958Z,101830
2023-05-08T08:45:01.290Z,101830
2023-05-08T08:50:01.479Z,101810
2023-05-08T08:55:00.903Z,101800
2023-05-08T09:00:02.236Z,101810
2023-05-08T09:05:01.051Z,101800
2023-05-08T09:10:00.878Z,101820
2023-05-08T09:15:01.925Z,101820
2023-05-08T09:20:01.220Z,101810
2023-05-08T09:25:00.935Z,101810
2023-05-08T09:30:00.877Z,101800
2023-05-08T09:35:00.538Z,101820
2023-05-08T09:40:00.745Z,101790
2023-05-08T09:45:00.542Z,101810
2023-05-08T09:50:01.959Z,101800
2023-05-08T09:55:00.935Z,101810
2023-05-08T10:00:00.766Z,101790
2023-05-08T10:05:01.234Z,101800
2023-05-08T10:10:00.826Z,101810
2023-05-08T10:15:00.685Z,101800
2023-05-08T10:20:01.343Z,101800
2023-05-08T10:25:00.865Z,101810
2023-05-08T10:30:00.881Z,101820
2023-05-08T10:35:00.875Z,101790
2023-05-08T10:40:01.661Z,101780
2023-05-08T10:45:01.351Z,101780
2023-05-08T10:50:00.967Z,101760
2023-05-08T10:55:01.320Z,101780
2023-05-08T11:00:00.549Z,101790
2023-05-08T11:05:00.602Z,101790
2023-05-08T11:10:00.568Z,101790
2023-05-08T11:15:01.136Z,101790
2023-05-08T11:20:01.658Z,101770
2023-05-08T11:25:00.987Z,101780
2023-05-08T11:30:00.723Z,101770
2023-05-08T11:35:00.525Z,101780
2023-05-08T11:40:01.021Z,101770
2023-05-08T11:45:00.530Z,101780
2023-05-08T11:50:01.028Z,101770
2023-05-08T11:55:01.180Z,101770
2023-05-08T12:00:01.240Z,101780
2023-05-08T12:05:00.891Z,101760
2023-05-08T12:10:01.000Z,101750
2023-05-08T12:15:03.237Z,101760
2023-05-08T12:20:01.154Z,101780
2023-05-08T12:25:00.711Z,101770
2023-05-08T12:30:00.831Z,101770
2023-05-08T12:35:02.348Z,101750
2023-05-08T12:40:00.603Z,101760
2023-05-08T12:45:01.182Z,101770
2023-05-08T12:50:01.169Z,101750
2023-05-08T12:55:00.876Z,101760
2023-05-08T13:00:03.575Z,101750
2023-05-08T13:05:00.780Z,101770
2023-05-08T13:10:01.025Z,101730
2023-05-08T13:15:00.727Z,101720
2023-05-08T13:20:01.171Z,101740
2023-05-08T13:25:01.784Z,101730
2023-05-08T13:30:00.800Z,101720
2023-05-08T13:35:01.300Z,101700
2023-05-08T13:40:01.069Z,101720
2023-05-08T13:45:00.720Z,101720
2023-05-08T13:50:00.846Z,101710
2023-05-08T13:55:00.786Z,101700
2023-05-08T14:00:01.111Z,101710
2023-05-08T14:05:00.839Z,101700
2023-05-08T14:10:00.642Z,101690
2023-05-08T14:15:01.032Z,101700
2023-05-08T14:20:00.984Z,101710
2023-05-08T14:25:00.548Z,101680
2023-05-08T14:30:00.756Z,101690
2023-05-08T14:35:01.081Z,101690
2023-05-08T14:40:01.077Z,101690
2023-05-08T14:45:01.550Z,101690
2023-05-08T14:50:00.653Z,101690
2023-05-08T14:55:01.265Z,101680
2023-05-08T15:00:00.786Z,101660
2023-05-08T15:05:00.566Z,101670
2023-05-08T15:10:00.882Z,101670
2023-05-08T15:15:02.732Z,101690
2023-05-08T15:20:01.134Z,101670
2023-05-08T15:25:00.879Z,101680
2023-05-08T15:30:00.642Z,101640
2023-05-08T15:35:01.494Z,101680
2023-05-08T15:40:00.923Z,101670
2023-05-08T15:45:00.527Z,101660
2023-05-08T15:50:00.854Z,101650
2023-05-08T15:55:00.610Z,101620
2023-05-08T16:00:00.641Z,101640
2023-05-08T16:05:00.535Z,101650
2023-05-08T16:10:00.865Z,101650
2023-05-08T16:15:00.574Z,101640
2023-05-08T16:20:00.953Z,101650
2023-05-08T16:25:00.792Z,101650
2023-05-08T16:30:00.654Z,101640
2023-05-08T16:35:00.781Z,101640
2023-05-08T16:40:00.738Z,101640
2023-05-08T16:45:00.622Z,101640
2023-05-08T16:50:00.636Z,101630
2023-05-08T16:55:01.695Z,101630
2023-05-08T17:00:01.187Z,101640
2023-05-08T17:05:00.675Z,101630
2023-05-08T17:10:00.568Z,101610
2023-05-08T17:15:00.927Z,101620
2023-05-08T17:20:00.703Z,101620
2023-05-08T17:25:00.509Z,101610
2023-05-08T17:30:00.613Z,101630
2023-05-08T17:35:00.547Z,101610
2023-05-08T17:40:00.851Z,101610
2023-05-08T17:45:00.856Z,101620
2023-05-08T17:50:00.714Z,101630
2023-05-08T17:55:00.824Z,101630
2023-05-08T18:00:00.902Z,101640
2023-05-08T18:05:00.526Z,101610
2023-05-08T18:10:01.088Z,101630
2023-05-08T18:15:00.994Z,101640
2023-05-08T18:20:00.802Z,101630
2023-05-08T18:25:00.903Z,101630
2023-05-08T18:30:02.031Z,101620
2023-05-08T18:35:00.988Z,101660
2023-05-08T18:40:02.067Z,101670
2023-05-08T18:45:00.733Z,101700
2023-05-08T18:50:01.395Z,101710
2023-05-08T18:55:00.594Z,101680
2023-05-08T19:00:00.709Z,101680
2023-05-08T19:05:01.056Z,101690
2023-05-08T19:10:00.523Z,101660
2023-05-08T19:15:00.559Z,101650
2023-05-08T19:20:00.722Z,101680
2023-05-08T19:25:00.528Z,101670
2023-05-08T19:30:00.780Z,101650
2023-05-08T19:35:00.976Z,101640
2023-05-08T19:40:01.736Z,101630
2023-05-08T19:45:00.822Z,101650
2023-05-08T19:50:01.116Z,101650
2023-05-08T19:55:00.492Z,101660
2023-05-08T20:00:01.290Z,101670
2023-05-08T20:10:00.512Z,101640
2023-05-08T20:15:00.747Z,101630
2023-05-08T20:20:01.325Z,101680
2023-05-08T20:25:03.562Z,101640
2023-05-08T20:30:01.614Z,101620
2023-05-08T20:35:00.800Z,101620
2023-05-08T20:40:00.849Z,101630
2023-05-08T20:45:01.138Z,101630
2023-05-08T20:50:00.603Z,101640
2023-05-08T20:55:01.566Z,101640
2023-05-08T21:00:00.807Z,101650
2023-05-08T21:05:00.942Z,101630
2023-05-08T21:10:01.066Z,101630
2023-05-08T21:15:00.652Z,101640
2023-05-08T21:20:01.437Z,101630
2023-05-08T21:25:01.153Z,101630
2023-05-08T21:30:00.656Z,101640
2023-05-08T21:35:01.117Z,101640
2023-05-08T21:40:00.755Z,101630
2023-05-08T21:45:01.401Z,101620
2023-05-08T21:50:01.036Z,101640
2023-05-08T21:55:01.068Z,101610
2023-05-08T22:00:00.636Z,101610
2023-05-08T22:05:00.784Z,101580
2023-05-08T22:10:01.233Z,101620
2023-05-08T22:15:01.167Z,101580
2023-05-08T22:20:00.502Z,101590
2023-05-08T22:25:00.865Z,101570
2023-05-08T22:30:01.373Z,101560
2023-05-08T22:35:00.682Z,101570
2023-05-08T22:40:01.270Z,101570
2023-05-08T22:45:01.210Z,101570
2023-05-08T22:50:00.917Z,101560
2023-05-08T22:55:00.882Z,101570
2023-05-08T23:00:01.125Z,101550
2023-05-08T23:05:01.103Z,101530
2023-05-08T23:10:02.686Z,101550
2023-05-08T23:15:00.567Z,101540
2023-05-08T23:20:00.611Z,101530
2023-05-08T23:25:00.767Z,101520
2023-05-08T23:30:01.787Z,101530
2023-05-08T23:35:00.688Z,101510
2023-05-08T23:40:02.442Z,101510
2023-05-08T23:45:00.513Z,101500
2023-05-08T23:50:00.871Z,101490
2023-05-08T23:55:01.741Z,101500
